Time;durP1;ratioP1;P1;durP2;ratioP2;P2;SDS_P1;SDS_P2;PMS_P1;PMS_P2;Temp;Humidity;BMP_temperature;BMP_pressure;BME280_temperature;BME280_humidity;BME280_pressure;Samples;Min_cycle;Max_cycle;Signal;HPM_P1;HPM_P2
2021/11/01 00:01:48;;;;;;;54.72;35.35;;;7.40;99.90;;;;;;5064565;28;20473;-51
2021/11/01 00:04:14;;;;;;;118.90;68.75;;;7.50;99.90;;;;;;5053713;28;20412;-47
2021/11/01 00:06:40;;;;;;;56.55;37.88;;;7.80;99.90;;;;;;5053566;28;20040;-49
2021/11/01 00:09:06;;;;;;;34.67;25.23;;;8.00;99.90;;;;;;5053473;28;20033;-48
2021/11/01 00:11:32;;;;;;;54.80;37.22;;;7.70;99.90;;;;;;5053260;28;20035;-50
2021/11/01 00:13:57;;;;;;;73.05;44.67;;;7.90;99.90;;;;;;5053406;28;20025;-50
2021/11/01 00:16:23;;;;;;;61.35;38.15;;;8.10;99.90;;;;;;5053445;28;20476;-53
2021/11/01 00:18:49;;;;;;;54.53;34.30;;;8.30;99.90;;;;;;5053132;28;20400;-51
2021/11/01 00:21:16;;;;;;;42.92;28.83;;;8.30;99.90;;;;;;5053475;28;20029;-51
2021/11/01 00:23:44;;;;;;;63.03;38.17;;;8.30;99.90;;;;;;5053132;28;20480;-51
2021/11/01 00:26:10;;;;;;;43.38;30.77;;;8.40;99.90;;;;;;5053167;28;20028;-52
2021/11/01 00:28:37;;;;;;;42.15;29.02;;;8.50;99.90;;;;;;5053321;28;20029;-47
2021/11/01 00:31:03;;;;;;;44.88;30.27;;;8.60;99.90;;;;;;5053164;28;20040;-51
2021/11/01 00:33:29;;;;;;;44.55;27.08;;;8.60;99.90;;;;;;5053349;28;20033;-48
2021/11/01 00:35:55;;;;;;;37.78;26.80;;;8.60;99.90;;;;;;5053100;28;20381;-52
2021/11/01 00:38:21;;;;;;;42.85;28.23;;;8.50;99.90;;;;;;5068459;28;20098;-53
2021/11/01 00:40:48;;;;;;;38.95;26.52;;;8.50;99.90;;;;;;5053141;28;20025;-51
2021/11/01 00:43:14;;;;;;;60.90;38.53;;;8.50;99.90;;;;;;5052991;28;20029;-50
2021/11/01 00:45:40;;;;;;;51.97;32.60;;;8.50;99.90;;;;;;5052947;28;20033;-48
2021/11/01 00:48:06;;;;;;;39.95;28.13;;;8.50;99.90;;;;;;5034478;28;20040;-51
2021/11/01 00:50:33;;;;;;;41.97;29.40;;;8.60;99.90;;;;;;5055272;28;20035;-50
2021/11/01 00:52:59;;;;;;;43.40;29.33;;;8.60;99.90;;;;;;5056956;28;20025;-46
2021/11/01 00:55:35;;;;;;;39.15;28.23;;;8.60;99.90;;;;;;5055208;28;20048;-51
2021/11/01 00:58:01;;;;;;;40.70;25.90;;;8.30;99.90;;;;;;5056932;28;20102;-52
2021/11/01 01:00:29;;;;;;;36.95;27.65;;;8.50;99.90;;;;;;5055004;28;20033;-52
2021/11/01 01:02:56;;;;;;;38.55;26.25;;;8.40;99.90;;;;;;5055317;28;20044;-48
2021/11/01 01:05:21;;;;;;;41.35;29.30;;;8.40;99.90;;;;;;5071641;28;20032;-49
2021/11/01 01:07:47;;;;;;;53.95;36.35;;;8.60;99.90;;;;;;5077086;28;20419;-47
2021/11/01 01:10:13;;;;;;;51.85;35.42;;;8.50;99.90;;;;;;5092035;28;20041;-52
2021/11/01 01:12:43;;;;;;;45.33;31.73;;;8.40;99.90;;;;;;5074985;28;20039;-50
2021/11/01 01:15:14;;;;;;;46.40;31.27;;;8.40;99.90;;;;;;5076586;28;20032;-52
2021/11/01 01:17:42;;;;;;;37.45;28.20;;;8.40;99.90;;;;;;5076670;28;20037;-48
2021/11/01 01:20:10;;;;;;;39.83;25.85;;;8.30;99.90;;;;;;5076586;28;20515;-49
2021/11/01 01:22:37;;;;;;;35.80;23.52;;;8.30;99.90;;;;;;5074893;28;20047;-50
2021/11/01 01:27:38;;;;;;;37.92;26.88;;;8.30;99.90;;;;;;5074055;28;20052;-51
2021/11/01 01:30:05;;;;;;;39.05;27.20;;;8.30;99.90;;;;;;5074358;28;20043;-46
2021/11/01 01:32:31;;;;;;;48.00;33.40;;;8.30;99.90;;;;;;5074323;28;20037;-49
2021/11/01 01:34:57;;;;;;;54.90;37.75;;;8.30;99.90;;;;;;5040798;28;20412;-51
2021/11/01 01:37:23;;;;;;;51.92;36.40;;;8.30;99.90;;;;;;5040705;28;20028;-51
2021/11/01 01:39:49;;;;;;;40.58;27.63;;;8.30;99.90;;;;;;5074169;28;20040;-54
2021/11/01 01:42:15;;;;;;;43.65;30.17;;;8.20;99.90;;;;;;5074085;28;20028;-51
2021/11/01 01:44:41;;;;;;;47.75;29.45;;;8.20;99.90;;;;;;5074042;28;20033;-52
2021/11/01 01:47:07;;;;;;;40.03;27.42;;;8.20;99.90;;;;;;5040610;28;20043;-49
2021/11/01 01:49:34;;;;;;;38.00;26.25;;;8.20;99.90;;;;;;5074014;28;20103;-47
2021/11/01 01:52:00;;;;;;;40.03;27.13;;;8.20;99.90;;;;;;5074052;28;20033;-50
2021/11/01 01:54:26;;;;;;;34.70;26.20;;;8.20;99.90;;;;;;5027274;28;20037;-52
2021/11/01 01:56:52;;;;;;;32.75;23.00;;;8.10;99.90;;;;;;5053857;28;20385;-49
2021/11/01 01:59:19;;;;;;;33.60;22.77;;;7.90;99.90;;;;;;5049906;28;20056;-48
2021/11/01 02:01:50;;;;;;;34.88;24.38;;;7.90;99.90;;;;;;5054990;28;20591;-49
2021/11/01 02:04:20;;;;;;;31.60;23.73;;;7.80;99.90;;;;;;5084950;28;20029;-49
2021/11/01 02:07:01;;;;;;;35.35;22.60;;;7.80;99.90;;;;;;5055752;28;20047;-51
2021/11/01 02:09:42;;;;;;;35.63;23.98;;;7.80;99.90;;;;;;5055866;28;20115;-51
2021/11/01 02:12:15;;;;;;;39.47;27.08;;;7.70;99.90;;;;;;5055635;28;20025;-51
2021/11/01 02:14:53;;;;;;;37.28;24.10;;;7.60;99.90;;;;;;5053757;28;20143;-48
2021/11/01 02:17:23;;;;;;;34.88;25.17;;;7.30;99.90;;;;;;5055492;28;20423;-49
2021/11/01 02:19:52;;;;;;;36.15;25.50;;;6.90;99.90;;;;;;5055495;28;20524;-49
2021/11/01 02:22:34;;;;;;;40.83;26.05;;;7.20;99.90;;;;;;5055666;28;20036;-54
2021/11/01 02:25:15;;;;;;;39.70;27.65;;;7.30;99.90;;;;;;5055522;28;20029;-52
2021/11/01 02:27:44;;;;;;;42.33;26.30;;;7.50;99.90;;;;;;5055293;28;20132;-48
2021/11/01 02:30:11;;;;;;;39.45;26.05;;;7.50;99.90;;;;;;5087218;28;20041;-54
2021/11/01 02:32:41;;;;;;;34.50;22.63;;;7.60;99.90;;;;;;5055208;28;20029;-51
2021/11/01 02:35:09;;;;;;;32.05;22.35;;;7.60;99.90;;;;;;5055209;28;20078;-51
2021/11/01 02:37:40;;;;;;;40.17;26.15;;;7.50;99.90;;;;;;5053353;28;20052;-48
2021/11/01 02:40:08;;;;;;;38.50;25.25;;;7.40;99.90;;;;;;5055152;28;20036;-51
2021/11/01 02:42:34;;;;;;;40.05;25.67;;;7.50;99.90;;;;;;5036563;28;20388;-51
2021/11/01 02:45:09;;;;;;;41.80;25.92;;;7.40;99.90;;;;;;5053182;28;20083;-54
2021/11/01 02:47:36;;;;;;;37.58;27.48;;;7.50;99.90;;;;;;5055238;28;20466;-48
2021/11/01 02:50:06;;;;;;;41.15;26.35;;;7.60;99.90;;;;;;5054789;28;20029;-47
2021/11/01 02:52:32;;;;;;;48.17;31.48;;;7.60;99.90;;;;;;5019635;28;20029;-48
2021/11/01 02:55:00;;;;;;;48.08;28.42;;;7.50;99.90;;;;;;5054967;28;20381;-51
2021/11/01 02:57:26;;;;;;;51.15;33.15;;;7.60;99.90;;;;;;5054749;28;20458;-48
2021/11/01 02:59:52;;;;;;;61.17;41.60;;;7.70;99.90;;;;;;5054638;28;20060;-51
2021/11/01 03:02:18;;;;;;;61.42;38.67;;;7.20;99.90;;;;;;5054975;28;20045;-51
2021/11/01 03:04:44;;;;;;;62.65;39.33;;;7.10;99.90;;;;;;5054579;28;20032;-47
2021/11/01 03:07:11;;;;;;;53.60;36.38;;;7.30;99.90;;;;;;5053406;28;20025;-52
2021/11/01 03:09:40;;;;;;;50.15;32.75;;;6.70;99.90;;;;;;5069382;28;20116;-52
2021/11/01 03:12:08;;;;;;;45.95;29.15;;;6.30;99.90;;;;;;5069353;28;20388;-49
2021/11/01 03:14:56;;;;;;;42.88;29.38;;;6.20;99.90;;;;;;5054972;28;20154;-49
2021/11/01 03:17:24;;;;;;;39.22;27.55;;;5.90;99.90;;;;;;5012301;28;20440;-49
2021/11/01 03:20:01;;;;;;;39.40;28.52;;;5.80;99.90;;;;;;5012449;28;20414;-49
2021/11/01 03:22:32;;;;;;;42.53;28.60;;;5.90;99.90;;;;;;5012548;28;20033;-49
2021/11/01 03:25:02;;;;;;;43.97;29.75;;;6.20;99.90;;;;;;5012440;28;20068;-46
2021/11/01 03:27:29;;;;;;;36.92;25.33;;;6.40;99.90;;;;;;5012362;28;20493;-49
2021/11/01 03:29:56;;;;;;;40.53;27.70;;;6.70;99.90;;;;;;5012325;28;20078;-48
2021/11/01 03:32:24;;;;;;;42.92;29.08;;;6.90;99.90;;;;;;5012334;28;20076;-49
2021/11/01 03:34:50;;;;;;;38.22;27.75;;;6.90;99.90;;;;;;5012432;28;20038;-49
2021/11/01 03:37:18;;;;;;;38.42;25.73;;;6.90;99.90;;;;;;5012336;28;20106;-48
2021/11/01 03:39:45;;;;;;;35.78;23.85;;;7.10;99.90;;;;;;5012131;28;20121;-52
2021/11/01 03:42:14;;;;;;;40.60;24.33;;;6.90;99.90;;;;;;5014670;28;20038;-48
2021/11/01 03:44:45;;;;;;;39.90;26.05;;;6.70;99.90;;;;;;5012031;28;20500;-47
2021/11/01 03:47:13;;;;;;;34.53;24.38;;;6.10;99.90;;;;;;5012126;28;20052;-48
2021/11/01 03:49:47;;;;;;;34.17;23.55;;;5.50;99.90;;;;;;5012060;28;20108;-50
2021/11/01 03:52:20;;;;;;;33.53;23.52;;;5.70;99.90;;;;;;5010381;28;20112;-49
2021/11/01 03:54:46;;;;;;;;;;;5.60;99.90;;;;;;4996114;28;20052;-45
2021/11/01 03:57:13;;;;;;;34.10;24.25;;;5.70;99.90;;;;;;5011986;28;19967;-51
2021/11/01 03:59:39;;;;;;;36.30;25.08;;;5.60;99.90;;;;;;5012048;28;20040;-47
2021/11/01 04:02:09;;;;;;;37.85;26.30;;;5.60;99.90;;;;;;5045395;28;20040;-51
2021/11/01 04:04:35;;;;;;;37.60;27.25;;;5.20;99.90;;;;;;5051852;28;20040;-49
2021/11/01 04:07:01;;;;;;;41.15;26.98;;;5.00;99.90;;;;;;5051714;28;20037;-50
2021/11/01 04:09:27;;;;;;;50.38;30.20;;;5.20;99.90;;;;;;5053540;28;20036;-51
2021/11/01 04:11:53;;;;;;;49.25;30.92;;;4.90;99.90;;;;;;5053427;28;20079;-54
2021/11/01 04:14:24;;;;;;;60.03;35.47;;;4.90;99.90;;;;;;5053484;28;20033;-53
2021/11/01 04:16:58;;;;;;;50.22;32.72;;;5.40;99.90;;;;;;5053405;28;20047;-49
2021/11/01 04:21:51;;;;;;;41.50;28.25;;;5.00;99.90;;;;;;5070807;28;20028;-46
2021/11/01 04:24:19;;;;;;;51.05;31.77;;;5.10;99.90;;;;;;5069653;28;20037;-45
2021/11/01 04:26:45;;;;;;;50.60;32.20;;;5.10;99.90;;;;;;5071304;28;20052;-53
2021/11/01 04:29:12;;;;;;;53.35;31.50;;;5.50;99.90;;;;;;5073009;28;20032;-49
2021/11/01 04:31:41;;;;;;;51.78;32.33;;;5.70;99.90;;;;;;5073363;28;20029;-51
2021/11/01 04:34:31;;;;;;;50.22;31.30;;;6.00;99.90;;;;;;5073316;28;20029;-47
2021/11/01 04:36:57;;;;;;;47.13;29.23;;;6.10;99.90;;;;;;5073213;28;20039;-48
2021/11/01 04:42:33;;;;;;;38.47;25.83;;;6.10;99.90;;;;;;5073297;28;20120;-52
2021/11/01 04:53:07;;;;;;;36.92;25.23;;;4.80;99.90;;;;;;5071821;28;20422;-46
2021/11/01 04:55:34;;;;;;;38.58;27.20;;;4.40;99.90;;;;;;5073005;28;20066;-51
2021/11/01 04:58:00;;;;;;;36.53;25.23;;;4.10;99.90;;;;;;5073052;28;20024;-48
2021/11/01 05:00:26;;;;;;;41.03;27.83;;;4.00;99.90;;;;;;5071472;28;20051;-48
2021/11/01 05:05:48;;;;;;;44.50;27.23;;;4.00;99.90;;;;;;5040841;28;20037;-51
2021/11/01 05:08:16;;;;;;;39.13;27.05;;;4.30;99.90;;;;;;5044808;28;20028;-51
2021/11/01 05:10:44;;;;;;;40.00;26.27;;;4.50;99.90;;;;;;5040730;28;20063;-49
2021/11/01 05:13:18;;;;;;;35.53;25.23;;;4.50;99.90;;;;;;5034731;28;20404;-51
2021/11/01 05:21:08;;;;;;;35.72;25.70;;;4.20;99.90;;;;;;5008551;28;20044;-49
2021/11/01 05:23:38;;;;;;;38.60;25.60;;;4.50;99.90;;;;;;5034980;28;20045;-51
2021/11/01 05:26:12;;;;;;;42.05;27.33;;;4.50;99.90;;;;;;5034265;28;20044;-47
2021/11/01 05:31:18;;;;;;;43.10;28.27;;;5.10;99.90;;;;;;5030598;28;20488;-52
2021/11/01 05:36:16;;;;;;;46.83;29.00;;;6.00;99.90;;;;;;5030749;28;20040;-48
2021/11/01 05:38:42;;;;;;;40.83;27.55;;;6.00;99.90;;;;;;4977319;28;20394;-49
2021/11/01 05:41:08;;;;;;;42.42;26.75;;;6.20;99.90;;;;;;4983482;28;20038;-49
2021/11/01 05:43:35;;;;;;;42.47;27.60;;;6.30;99.90;;;;;;5022140;28;20057;-51
2021/11/01 05:46:01;;;;;;;39.58;28.25;;;6.30;99.90;;;;;;5024168;28;20104;-49
2021/11/01 05:48:27;;;;;;;38.55;26.98;;;6.50;99.90;;;;;;5027399;28;20041;-52
2021/11/01 05:50:55;;;;;;;37.38;26.13;;;6.50;99.90;;;;;;5008693;28;20038;-49
2021/11/01 05:53:22;;;;;;;48.65;30.52;;;7.00;99.90;;;;;;5022724;28;20046;-48
2021/11/01 05:55:55;;;;;;;50.55;35.13;;;8.00;99.90;;;;;;5011218;28;20112;-51
2021/11/01 05:58:41;;;;;;;52.22;34.92;;;9.20;99.90;;;;;;5031961;28;20420;-49
2021/11/01 06:09:30;;;;;;;50.13;32.55;;;13.40;95.70;;;;;;4948960;28;20479;-51
2021/11/01 06:14:41;;;;;;;71.47;44.20;;;14.80;95.50;;;;;;4974866;28;20448;-50
2021/11/01 06:17:07;;;;;;;48.85;34.38;;;15.00;93.30;;;;;;4974615;28;20121;-50
2021/11/01 06:19:32;;;;;;;45.00;34.13;;;15.80;91.70;;;;;;4986456;28;20480;-48
2021/11/01 06:21:58;;;;;;;42.95;33.28;;;16.00;90.80;;;;;;4988596;28;20026;-49
2021/11/01 06:26:50;;;;;;;40.38;31.15;;;17.10;89.90;;;;;;4993919;28;20065;-49
2021/11/01 06:29:18;;;;;;;40.90;31.75;;;18.10;88.60;;;;;;4993952;28;20030;-48
2021/11/01 06:31:56;;;;;;;39.58;30.08;;;18.70;86.30;;;;;;4993869;28;20394;-49
2021/11/01 06:34:36;;;;;;;33.42;27.48;;;19.30;83.10;;;;;;4993999;28;20471;-49
2021/11/01 07:17:14;;;;;;;31.15;24.73;;;21.20;74.40;;;;;;5056255;28;20067;-50
2021/11/01 07:20:07;;;;;;;28.60;25.15;;;20.10;74.90;;;;;;5063800;28;20040;-47
2021/11/01 07:39:00;;;;;;;32.95;26.25;;;24.00;71.30;;;;;;5075163;28;20081;-45
2021/11/01 08:38:35;;;;;;;31.33;28.02;;;24.60;69.90;;;;;;5101550;28;20032;-50
2021/11/01 09:26:44;;;;;;;33.17;29.88;;;24.70;68.30;;;;;;4953447;28;20053;-49
2021/11/01 09:29:29;;;;;;;34.85;30.63;;;;;;;;;;4957674;28;20122;-52
2021/11/01 09:43:01;;;;;;;44.42;39.95;;;27.10;66.80;;;;;;4981787;28;20044;-51
2021/11/01 09:45:29;;;;;;;31.08;28.10;;;25.80;66.30;;;;;;4960189;28;20034;-48
2021/11/01 09:47:55;;;;;;;33.25;29.90;;;26.10;67.20;;;;;;4986847;28;20042;-51
2021/11/01 09:50:23;;;;;;;36.55;32.65;;;26.20;67.70;;;;;;4996279;28;20038;-50
2021/11/01 09:52:57;;;;;;;39.20;35.38;;;26.80;67.60;;;;;;4982353;28;20035;-49
2021/11/01 10:00:56;;;;;;;37.08;31.50;;;26.70;68.70;;;;;;4942937;28;20046;-51
2021/11/01 10:03:51;;;;;;;42.90;39.20;;;27.90;68.40;;;;;;4968912;28;20042;-49
2021/11/01 10:06:23;;;;;;;33.00;29.65;;;27.40;65.90;;;;;;4917205;29;20500;-49
2021/11/01 10:08:52;;;;;;;;;;;28.10;67.40;;;;;;4937857;29;20035;-50
2021/11/01 10:11:22;;;;;;;34.08;30.98;;;27.60;67.00;;;;;;4936179;29;19907;-47
2021/11/01 10:13:59;;;;;;;31.40;28.55;;;27.20;67.00;;;;;;4933205;29;20050;-51
2021/11/01 10:19:34;;;;;;;39.50;36.20;;;27.90;66.40;;;;;;4934876;29;20050;-50
2021/11/01 10:22:02;;;;;;;27.15;24.35;;;;;;;;;;4934214;29;20046;-49
2021/11/01 10:24:39;;;;;;;31.77;28.60;;;28.60;66.40;;;;;;4920067;29;20514;-50
2021/11/01 10:27:08;;;;;;;28.70;25.77;;;28.00;66.20;;;;;;4916537;29;20395;-47
2021/11/01 10:29:53;;;;;;;28.90;25.02;;;28.10;65.60;;;;;;4897209;29;20039;-52
2021/11/01 10:32:54;;;;;;;33.97;29.88;;;28.50;65.80;;;;;;4938135;29;20043;-53
2021/11/01 10:35:22;;;;;;;34.33;30.75;;;28.50;64.80;;;;;;4898523;29;20063;-47
2021/11/01 10:38:03;;;;;;;27.98;25.05;;;27.80;65.20;;;;;;4920079;29;20031;-48
2021/11/01 10:40:31;;;;;;;28.83;25.80;;;28.00;65.30;;;;;;4948098;29;20063;-51
2021/11/01 10:43:14;;;;;;;29.90;26.38;;;28.10;65.40;;;;;;4955660;28;20096;-50
2021/11/01 11:13:35;;;;;;;22.35;20.05;;;26.70;64.70;;;;;;5048803;28;20102;-51
2021/11/01 11:16:02;;;;;;;20.80;18.58;;;26.70;64.60;;;;;;5049417;28;20041;-50
2021/11/01 11:29:53;;;;;;;17.73;15.93;;;26.20;64.60;;;;;;5024656;28;20036;-51
2021/11/01 11:48:47;;;;;;;21.33;16.30;;;26.30;64.30;;;;;;5105933;28;20039;-53
2021/11/01 11:51:13;;;;;;;18.60;14.95;;;;;;;;;;5107973;28;20092;-49
2021/11/01 11:54:00;;;;;;;18.15;15.05;;;25.20;64.70;;;;;;5105808;28;20111;-49
2021/11/01 11:56:40;;;;;;;16.88;14.85;;;24.90;65.00;;;;;;5012838;28;20057;-49
2021/11/01 11:59:11;;;;;;;21.65;15.77;;;25.00;66.70;;;;;;5032109;28;20037;-47
2021/11/01 12:01:40;;;;;;;17.03;14.70;;;25.50;65.00;;;;;;5034533;28;20048;-52
2021/11/01 12:04:20;;;;;;;18.88;16.52;;;25.20;65.00;;;;;;4993480;28;20861;-49
2021/11/01 12:06:56;;;;;;;17.73;15.32;;;25.40;65.50;;;;;;4993123;28;20125;-51
2021/11/01 12:09:27;;;;;;;18.08;14.55;;;25.10;66.10;;;;;;4992557;28;20046;-50
2021/11/01 12:12:15;;;;;;;23.38;15.70;;;24.50;65.60;;;;;;4993194;28;20035;-48
2021/11/01 12:17:25;;;;;;;20.38;17.33;;;25.30;66.30;;;;;;4992894;28;20370;-52
2021/11/01 12:19:51;;;;;;;25.50;20.75;;;25.10;65.10;;;;;;4991059;28;20482;-47
2021/11/01 12:22:29;;;;;;;21.98;18.38;;;25.00;65.30;;;;;;4993429;28;20034;-48
2021/11/01 12:24:57;;;;;;;24.08;17.70;;;24.90;65.60;;;;;;4941910;28;20077;-48
2021/11/01 12:27:23;;;;;;;21.73;18.77;;;24.80;66.00;;;;;;4955717;28;20137;-51
2021/11/01 12:29:50;;;;;;;26.65;20.33;;;24.60;66.30;;;;;;4937541;29;20126;-47
2021/11/01 12:32:16;;;;;;;28.40;20.85;;;24.40;67.50;;;;;;4935236;29;20047;-46
2021/11/01 12:35:01;;;;;;;28.67;20.30;;;24.40;67.90;;;;;;4985171;28;20048;-47
2021/11/01 12:37:31;;;;;;;26.35;20.75;;;24.60;67.10;;;;;;5003395;28;20181;-49
2021/11/01 12:40:31;;;;;;;27.98;19.73;;;24.40;67.50;;;;;;5005870;28;20038;-51
2021/11/01 12:57:03;;;;;;;20.35;15.90;;;24.20;67.50;;;;;;5000861;28;20113;-49
2021/11/01 12:59:50;;;;;;;22.05;17.90;;;24.10;67.70;;;;;;5005968;28;20042;-47
2021/11/01 13:02:25;;;;;;;26.67;17.98;;;23.60;68.70;;;;;;5066844;28;20024;-47
2021/11/01 13:04:51;;;;;;;25.25;19.67;;;23.70;68.80;;;;;;5069140;28;20474;-50
2021/11/01 13:18:22;;;;;;;38.08;24.75;;;23.20;69.40;;;;;;5105533;28;20042;-49
2021/11/01 13:21:00;;;;;;;25.42;19.35;;;23.10;69.40;;;;;;5066802;28;20534;-48
2021/11/01 13:23:31;;;;;;;33.45;18.58;;;;;;;;;;5070004;28;20091;-49
2021/11/01 13:26:23;;;;;;;26.08;17.35;;;22.70;70.00;;;;;;5071275;28;20025;-51
2021/11/01 13:37:36;;;;;;;22.60;17.27;;;22.60;70.70;;;;;;5008038;28;20475;-49
2021/11/01 13:40:07;;;;;;;21.27;17.42;;;23.00;70.90;;;;;;4994778;28;20042;-46
2021/11/01 13:42:34;;;;;;;19.25;16.42;;;22.70;70.20;;;;;;5006937;28;20022;-50
2021/11/01 13:45:15;;;;;;;27.17;18.63;;;22.60;70.30;;;;;;5009419;28;20038;-51
2021/11/01 13:47:46;;;;;;;22.65;17.73;;;22.50;70.30;;;;;;4993270;28;20433;-47
2021/11/01 13:50:13;;;;;;;25.05;17.75;;;22.60;71.70;;;;;;5010017;28;20046;-46
2021/11/01 13:52:41;;;;;;;22.90;14.75;;;22.60;70.70;;;;;;5038579;28;20139;-48
2021/11/01 13:55:17;;;;;;;25.38;16.25;;;22.40;70.90;;;;;;5046478;28;20075;-48
2021/11/01 13:58:12;;;;;;;23.23;15.88;;;22.40;71.70;;;;;;5028429;28;20140;-51
2021/11/01 14:03:34;;;;;;;25.08;18.67;;;22.50;72.20;;;;;;5049051;28;20480;-47
2021/11/01 14:28:25;;;;;;;27.92;16.70;;;22.50;72.70;;;;;;5058161;28;20040;-45
2021/11/01 14:36:26;;;;;;;24.83;19.63;;;22.20;72.70;;;;;;5063773;28;20048;-47
2021/11/01 15:25:20;;;;;;;29.50;19.33;;;18.90;79.10;;;;;;5034814;28;20088;-47
2021/11/01 15:38:41;;;;;;;40.58;24.92;;;18.40;78.80;;;;;;5048686;28;20132;-48
2021/11/01 16:19:51;;;;;;;55.63;32.67;;;16.90;83.30;;;;;;4993597;28;20129;-46
2021/11/01 16:22:18;;;;;;;51.10;33.17;;;16.70;83.70;;;;;;4996150;28;20559;-45
2021/11/01 16:24:45;;;;;;;54.40;33.90;;;16.70;84.00;;;;;;5039379;28;20048;-44
2021/11/01 16:27:14;;;;;;;63.25;37.90;;;16.60;84.10;;;;;;5050662;28;20033;-45
2021/11/01 16:35:19;;;;;;;67.00;39.05;;;16.50;84.60;;;;;;5010126;28;20053;-46
2021/11/01 16:37:52;;;;;;;61.88;36.53;;;16.40;84.90;;;;;;5009578;28;20050;-47
2021/11/01 16:40:18;;;;;;;43.42;29.98;;;16.30;85.30;;;;;;5006283;28;20038;-47
2021/11/01 16:42:46;;;;;;;51.15;31.55;;;16.30;85.50;;;;;;5010870;28;20036;-45
2021/11/01 16:45:23;;;;;;;50.60;31.83;;;16.20;86.00;;;;;;4971516;28;20086;-47
2021/11/01 16:47:49;;;;;;;44.20;29.98;;;16.10;86.10;;;;;;4968924;28;20179;-45
2021/11/01 16:50:16;;;;;;;47.38;30.23;;;16.10;86.30;;;;;;4970339;28;20530;-44
2021/11/01 16:52:44;;;;;;;44.67;30.30;;;16.00;86.60;;;;;;4971271;28;20070;-46
2021/11/01 16:55:27;;;;;;;41.88;29.90;;;15.90;86.90;;;;;;4967131;28;20537;-45
2021/11/01 16:57:57;;;;;;;49.25;32.95;;;15.90;87.20;;;;;;4972596;28;20069;-48
2021/11/01 17:00:40;;;;;;;52.20;33.25;;;15.80;87.60;;;;;;4969966;28;20471;-45
2021/11/01 17:06:04;;;;;;;50.35;34.55;;;15.70;88.10;;;;;;4970662;28;20049;-45
2021/11/01 17:38:39;;;;;;;45.25;30.25;;;14.90;90.90;;;;;;5049082;28;20055;-45
2021/11/01 18:41:39;;;;;;;41.15;26.92;;;12.90;95.90;;;;;;5046566;28;20044;-49
2021/11/01 18:52:11;;;;;;;120.05;99.07;;;12.00;98.80;;;;;;5047720;28;20048;-49
2021/11/01 18:54:42;;;;;;;129.88;108.43;;;11.90;99.20;;;;;;5040612;28;20053;-48
2021/11/01 18:57:11;;;;;;;132.90;111.68;;;11.90;99.40;;;;;;5040058;28;20052;-48
2021/11/01 18:59:39;;;;;;;134.85;115.47;;;11.90;99.40;;;;;;5041493;28;20480;-48
2021/11/01 19:05:10;;;;;;;120.65;100.10;;;12.00;99.50;;;;;;5050050;28;20078;-46
2021/11/01 19:13:17;;;;;;;117.75;98.40;;;11.70;99.90;;;;;;5046042;28;20045;-48
2021/11/01 20:05:40;;;;;;;41.15;29.30;;;11.40;99.90;;;;;;5031706;28;20128;-46
2021/11/01 21:26:22;;;;;;;52.75;33.70;;;10.80;99.90;;;;;;4967939;28;20077;-52
2021/11/01 21:28:52;;;;;;;48.65;34.15;;;10.90;99.90;;;;;;4970607;28;20058;-48
2021/11/01 21:31:20;;;;;;;48.58;32.95;;;11.00;99.90;;;;;;4972541;28;20499;-52
2021/11/01 21:33:50;;;;;;;47.22;35.38;;;11.00;99.90;;;;;;4974600;28;20045;-53
2021/11/01 21:36:24;;;;;;;52.63;33.70;;;10.90;99.90;;;;;;4944327;28;20049;-50
2021/11/01 21:38:54;;;;;;;44.42;31.23;;;10.90;99.90;;;;;;4970207;28;20161;-56
2021/11/01 21:41:20;;;;;;;52.50;33.70;;;10.90;99.90;;;;;;4972540;28;20035;-49
2021/11/01 21:43:46;;;;;;;46.25;32.67;;;10.80;99.90;;;;;;4921234;28;20034;-52
2021/11/01 21:46:12;;;;;;;50.40;33.45;;;10.70;99.90;;;;;;4926918;28;20113;-51
2021/11/01 21:48:38;;;;;;;50.00;32.75;;;10.70;99.90;;;;;;4958459;28;20043;-53
2021/11/01 21:51:04;;;;;;;53.13;35.20;;;10.60;99.90;;;;;;4955146;28;20043;-51
2021/11/01 21:53:31;;;;;;;46.20;33.97;;;10.70;99.90;;;;;;4974230;28;20035;-57
2021/11/01 21:55:57;;;;;;;51.33;36.03;;;10.60;99.90;;;;;;4939004;28;20462;-52
2021/11/01 22:09:46;;;;;;;50.72;34.97;;;10.70;99.90;;;;;;4910896;29;20039;-54
2021/11/01 22:17:44;;;;;;;47.22;33.83;;;10.80;99.90;;;;;;4910816;29;20087;-50
2021/11/01 22:20:16;;;;;;;51.72;34.60;;;10.90;99.90;;;;;;4913623;29;20220;-53
2021/11/01 22:22:57;;;;;;;52.30;34.92;;;10.90;99.90;;;;;;4914063;29;20110;-55
2021/11/01 22:25:28;;;;;;;46.55;31.42;;;10.80;99.90;;;;;;4896221;29;20048;-50
2021/11/01 22:56:54;;;;;;;41.72;30.05;;;10.40;99.90;;;;;;4956676;29;20098;-54
2021/11/01 22:59:20;;;;;;;39.00;28.13;;;10.30;99.90;;;;;;4947318;28;20039;-48
2021/11/01 23:01:48;;;;;;;41.65;28.60;;;10.30;99.90;;;;;;4950365;28;20032;-53
2021/11/01 23:31:39;;;;;;;43.22;28.42;;;10.00;99.90;;;;;;4926629;29;20042;-49
2021/11/01 23:34:16;;;;;;;41.88;27.38;;;9.90;99.90;;;;;;4937113;29;20049;-47
2021/11/01 23:36:44;;;;;;;39.45;27.67;;;10.10;99.90;;;;;;4923135;29;20044;-49
2021/11/01 23:39:13;;;;;;;36.67;26.73;;;10.00;99.90;;;;;;4937678;29;20048;-50
2021/11/01 23:41:47;;;;;;;38.83;27.55;;;10.10;99.90;;;;;;4936009;29;20042;-49
2021/11/01 23:44:13;;;;;;;39.75;26.38;;;10.20;99.90;;;;;;4937941;29;20031;-50
2021/11/01 23:46:39;;;;;;;41.60;29.58;;;10.10;99.90;;;;;;4935461;29;20127;-52
2021/11/01 23:49:05;;;;;;;38.50;26.77;;;10.10;99.90;;;;;;4937709;28;20403;-53
2021/11/01 23:51:32;;;;;;;36.13;26.98;;;10.10;99.90;;;;;;4937289;29;20035;-52
2021/11/01 23:56:26;;;;;;;40.22;27.58;;;10.00;99.90;;;;;;4955986;28;20530;-54
2021/11/01 23:58:52;;;;;;;41.35;25.85;;;10.00;99.90;;;;;;4947523;28;20037;-47
